Terminal Aerodrome Forecast
Issued by NWS

Home | Current Version | Previous Version | Text Only | Print | Product List | Glossary On
Versions: 1 2 3 4 5 6 7 8 9 10 11 12 13 14 15 16 17 18 19 20 21 22 23 24 25 26 27 28 29 30 31 32 33 34 35 36 37 38 39 40
000
FTAK31 PANC 290532
TAFADU
TAF
PADU 290532Z 2906/3006 15022G35KT 6SM -RA BR SCT015 OVC025
      TEMPO 2906/2910 17010G25KT 5SM BR
     FM291000 18009KT 4SM -RA BR SCT015 OVC025
     FM291200 17010KT 3SM -RA BR SCT010 BKN025 BKN030
     FM292100 15007KT P6SM BKN040=

USA.gov is the U.S. government's official web portal to all federal, state and local government web resources and services.